Time;durP1;ratioP1;P1;durP2;ratioP2;P2;SDS_P1;SDS_P2;PMS_P1;PMS_P2;Temp;Humidity;BMP_temperature;BMP_pressure;BME280_temperature;BME280_humidity;BME280_pressure;Samples;Min_cycle;Max_cycle;Signal;HPM_P1;HPM_P2
2022/03/03 00:00:45;;;;;;;17.13;12.40;;;2.50;65.20;;;;;;7378647;19;20132;-43
2022/03/03 00:03:20;;;;;;;19.38;12.07;;;2.40;65.30;;;;;;7379983;19;20150;-43
2022/03/03 00:05:51;;;;;;;20.90;12.60;;;2.50;65.10;;;;;;7375817;19;20147;-43
2022/03/03 00:08:21;;;;;;;22.50;12.80;;;2.60;65.10;;;;;;7378535;19;20128;-43
2022/03/03 00:10:51;;;;;;;17.92;11.90;;;2.50;65.00;;;;;;7377543;19;20519;-44
2022/03/03 00:13:22;;;;;;;18.98;12.48;;;2.50;65.00;;;;;;7379868;19;20151;-44
2022/03/03 00:15:52;;;;;;;20.10;11.93;;;2.50;65.00;;;;;;7376880;19;20669;-44
2022/03/03 00:18:24;;;;;;;23.75;13.18;;;2.50;65.00;;;;;;7378073;19;20237;-43
2022/03/03 00:20:59;;;;;;;20.42;11.13;;;2.60;65.30;;;;;;7374721;19;20143;-44
2022/03/03 00:23:28;;;;;;;18.48;12.45;;;2.50;65.40;;;;;;7379908;19;20498;-44
2022/03/03 00:25:58;;;;;;;21.33;13.23;;;2.40;65.70;;;;;;7379441;19;20123;-43
2022/03/03 00:28:27;;;;;;;19.63;13.60;;;2.30;65.70;;;;;;7374526;19;20139;-43
2022/03/03 00:30:57;;;;;;;19.42;13.13;;;2.30;66.20;;;;;;7374174;19;20147;-43
2022/03/03 00:33:29;;;;;;;21.05;14.30;;;2.20;66.10;;;;;;7373018;19;20171;-43
2022/03/03 00:36:01;;;;;;;22.48;13.68;;;2.20;66.30;;;;;;7378818;19;20127;-43
2022/03/03 00:38:31;;;;;;;15.90;11.73;;;2.20;66.30;;;;;;7379303;19;20621;-44
2022/03/03 00:41:00;;;;;;;17.35;13.25;;;2.20;66.10;;;;;;7379713;19;20136;-43
2022/03/03 00:43:30;;;;;;;26.60;13.48;;;2.20;66.10;;;;;;7368751;19;20135;-43
2022/03/03 00:46:01;;;;;;;24.33;12.23;;;2.20;66.20;;;;;;7378433;19;20140;-43
2022/03/03 00:48:34;;;;;;;24.40;14.50;;;2.20;66.20;;;;;;7376804;19;20442;-43
2022/03/03 00:51:06;;;;;;;22.27;12.95;;;2.20;66.20;;;;;;7381632;19;20144;-44
2022/03/03 00:53:37;;;;;;;20.08;13.63;;;2.20;66.20;;;;;;7378114;19;20139;-43
2022/03/03 00:56:07;;;;;;;19.42;12.57;;;2.10;66.20;;;;;;7375941;19;20139;-43
2022/03/03 00:58:37;;;;;;;15.85;11.70;;;2.10;66.30;;;;;;7377317;19;20509;-43
2022/03/03 01:01:06;;;;;;;19.77;11.77;;;2.10;66.20;;;;;;7374583;19;20131;-43
2022/03/03 01:03:41;;;;;;;19.95;12.57;;;2.10;66.20;;;;;;7378121;19;20127;-42
2022/03/03 01:06:16;;;;;;;20.63;12.40;;;2.00;66.40;;;;;;7374655;19;20139;-42
2022/03/03 01:08:46;;;;;;;21.40;12.30;;;2.00;66.50;;;;;;7379983;19;20140;-43
2022/03/03 01:11:15;;;;;;;17.63;13.60;;;2.00;66.10;;;;;;7376234;19;20246;-43
2022/03/03 01:13:45;;;;;;;24.70;14.32;;;2.00;66.00;;;;;;7378278;19;20124;-43
2022/03/03 01:16:16;;;;;;;20.40;12.38;;;1.90;65.80;;;;;;7371744;19;20129;-44
2022/03/03 01:18:49;;;;;;;22.63;12.73;;;1.90;65.90;;;;;;7378625;19;20127;-44
2022/03/03 01:21:21;;;;;;;19.02;12.40;;;2.00;65.80;;;;;;7377256;19;20584;-44
2022/03/03 01:23:50;;;;;;;18.35;12.57;;;2.00;65.30;;;;;;7380862;19;20132;-43
2022/03/03 01:26:22;;;;;;;19.70;12.57;;;2.00;65.50;;;;;;7377012;19;20789;-43
2022/03/03 01:28:52;;;;;;;20.15;13.10;;;2.00;65.50;;;;;;7378681;19;20127;-45
2022/03/03 01:31:24;;;;;;;22.98;15.05;;;1.90;65.40;;;;;;7375761;19;20155;-42
2022/03/03 01:33:58;;;;;;;19.88;13.80;;;1.80;65.50;;;;;;7370358;19;20190;-43
2022/03/03 01:36:28;;;;;;;23.95;13.82;;;1.80;65.50;;;;;;7375811;19;20491;-43
2022/03/03 01:38:57;;;;;;;20.83;14.02;;;1.80;65.70;;;;;;7378404;19;20131;-43
2022/03/03 01:41:29;;;;;;;22.05;13.45;;;1.70;65.50;;;;;;7368071;19;20135;-42
2022/03/03 01:43:58;;;;;;;28.63;14.55;;;1.80;65.20;;;;;;7377291;19;20124;-42
2022/03/03 01:46:28;;;;;;;20.42;13.15;;;1.80;64.80;;;;;;7374391;19;20136;-42
2022/03/03 01:49:03;;;;;;;20.63;14.32;;;1.80;65.00;;;;;;7374929;19;20473;-42
2022/03/03 01:51:33;;;;;;;22.63;13.48;;;1.80;64.40;;;;;;7374492;19;20138;-42
2022/03/03 01:54:03;;;;;;;23.10;13.80;;;1.80;64.70;;;;;;7377665;19;20190;-41
2022/03/03 01:56:38;;;;;;;21.42;13.88;;;1.90;64.90;;;;;;7374895;19;20177;-41
2022/03/03 01:59:07;;;;;;;24.08;14.52;;;1.90;64.50;;;;;;7379986;19;20142;-41
2022/03/03 02:01:40;;;;;;;22.90;14.73;;;1.90;64.40;;;;;;7366953;19;20713;-41
2022/03/03 02:04:12;;;;;;;25.75;15.48;;;1.90;64.60;;;;;;7373299;19;20661;-42
2022/03/03 02:06:44;;;;;;;25.73;14.68;;;1.90;64.70;;;;;;7378610;19;20130;-42
2022/03/03 02:09:14;;;;;;;21.13;13.88;;;1.90;64.50;;;;;;7374835;19;20124;-42
2022/03/03 02:11:43;;;;;;;20.33;13.70;;;1.90;64.50;;;;;;7369836;19;20139;-43
2022/03/03 02:14:13;;;;;;;24.45;14.90;;;1.90;64.40;;;;;;7372184;19;20207;-45
2022/03/03 02:16:47;;;;;;;24.80;15.10;;;1.90;64.30;;;;;;7372706;19;20134;-44
2022/03/03 02:19:23;;;;;;;22.35;13.20;;;1.80;64.30;;;;;;7378316;19;20147;-44
2022/03/03 02:21:55;;;;;;;21.65;13.20;;;1.80;64.20;;;;;;7371386;19;20616;-43
2022/03/03 02:24:25;;;;;;;28.38;15.18;;;1.80;63.90;;;;;;7373627;19;20136;-44
2022/03/03 02:26:58;;;;;;;24.10;13.90;;;1.80;63.50;;;;;;7374975;19;20675;-43
2022/03/03 02:29:33;;;;;;;25.63;16.30;;;1.80;63.80;;;;;;7375827;19;20127;-43
2022/03/03 02:32:03;;;;;;;25.75;16.42;;;1.80;64.20;;;;;;7375575;19;20839;-44
2022/03/03 02:34:36;;;;;;;24.90;14.32;;;1.80;63.90;;;;;;7374900;19;20182;-44
2022/03/03 02:37:08;;;;;;;20.77;13.45;;;1.70;63.90;;;;;;7376423;19;20218;-44
2022/03/03 02:39:37;;;;;;;23.98;15.93;;;1.70;63.70;;;;;;7375864;19;20181;-43
2022/03/03 02:42:12;;;;;;;24.27;15.38;;;1.70;63.50;;;;;;7378961;19;20131;-44
2022/03/03 02:44:42;;;;;;;23.80;13.70;;;1.70;63.50;;;;;;7375429;19;20143;-44
2022/03/03 02:47:14;;;;;;;21.90;14.25;;;1.70;63.60;;;;;;7374935;19;20139;-43
2022/03/03 02:49:43;;;;;;;22.35;14.40;;;1.70;63.70;;;;;;7374657;19;20135;-43
2022/03/03 02:52:16;;;;;;;24.33;13.88;;;1.70;63.90;;;;;;7371022;19;20131;-43
2022/03/03 02:54:48;;;;;;;23.98;15.23;;;1.80;63.70;;;;;;7370911;19;20135;-43
2022/03/03 03:00:00;;;;;;;20.08;13.32;;;1.60;64.40;;;;;;7373741;19;20144;-43
2022/03/03 03:02:32;;;;;;;22.08;13.75;;;1.50;65.00;;;;;;7374763;19;20132;-44
2022/03/03 03:05:06;;;;;;;20.77;13.13;;;1.50;65.50;;;;;;7373978;19;20588;-43
2022/03/03 03:07:41;;;;;;;29.13;15.77;;;1.40;65.70;;;;;;7373368;19;20191;-43
2022/03/03 03:10:14;;;;;;;25.55;14.13;;;1.40;65.70;;;;;;7373579;19;20128;-43
2022/03/03 03:12:43;;;;;;;23.13;14.30;;;1.50;65.70;;;;;;7375280;19;20652;-43
2022/03/03 03:15:13;;;;;;;24.23;14.13;;;1.40;65.40;;;;;;7368324;19;20135;-43
2022/03/03 03:17:42;;;;;;;21.17;13.57;;;1.30;65.50;;;;;;7372316;19;20132;-43
2022/03/03 03:20:13;;;;;;;21.45;14.05;;;1.30;65.70;;;;;;7377203;19;20431;-43
2022/03/03 03:22:46;;;;;;;21.67;13.45;;;1.20;65.80;;;;;;7383006;19;20577;-43
2022/03/03 03:25:16;;;;;;;20.80;12.85;;;1.30;66.10;;;;;;7380978;19;20614;-43
2022/03/03 03:27:46;;;;;;;22.05;14.55;;;1.30;66.30;;;;;;7379729;19;20498;-43
2022/03/03 03:30:16;;;;;;;24.77;14.57;;;1.30;66.30;;;;;;7376847;19;20817;-43
2022/03/03 03:32:45;;;;;;;22.13;12.77;;;1.30;66.40;;;;;;7378659;19;20193;-43
2022/03/03 03:35:17;;;;;;;22.38;14.43;;;1.30;66.30;;;;;;7379679;19;20159;-44
2022/03/03 03:37:52;;;;;;;21.08;13.00;;;1.30;66.20;;;;;;7382826;19;20132;-43
2022/03/03 03:40:24;;;;;;;21.58;13.63;;;1.30;65.90;;;;;;7382967;19;20461;-43
2022/03/03 03:42:54;;;;;;;27.17;13.80;;;1.20;66.20;;;;;;7382479;19;20161;-43
2022/03/03 03:45:25;;;;;;;22.88;13.65;;;1.20;66.60;;;;;;7377975;19;20131;-43
2022/03/03 03:47:57;;;;;;;19.95;12.88;;;1.20;66.50;;;;;;7382987;19;20603;-44
2022/03/03 03:50:28;;;;;;;22.63;13.52;;;1.10;66.40;;;;;;7381323;19;20131;-43
2022/03/03 03:53:00;;;;;;;24.45;13.68;;;1.10;66.40;;;;;;7379243;19;20742;-43
2022/03/03 03:55:30;;;;;;;25.38;14.80;;;1.10;66.70;;;;;;7377768;19;20173;-43
2022/03/03 03:57:59;;;;;;;20.27;13.07;;;1.00;67.00;;;;;;7378727;19;20132;-43
2022/03/03 04:00:29;;;;;;;26.00;15.02;;;1.00;67.40;;;;;;7378403;19;20141;-43
2022/03/03 04:03:01;;;;;;;19.67;12.85;;;1.00;68.20;;;;;;7381160;19;20143;-42
2022/03/03 04:05:30;;;;;;;19.58;13.73;;;0.90;67.40;;;;;;7377800;19;20165;-43
2022/03/03 04:08:02;;;;;;;24.08;14.52;;;0.90;68.30;;;;;;7382260;19;20201;-43
2022/03/03 04:10:34;;;;;;;27.63;14.38;;;0.90;67.80;;;;;;7384997;19;20130;-43
2022/03/03 04:13:06;;;;;;;24.30;15.18;;;0.90;67.50;;;;;;7379306;19;20565;-43
2022/03/03 04:15:40;;;;;;;24.40;13.68;;;0.90;68.00;;;;;;7375830;19;20606;-43
2022/03/03 04:18:12;;;;;;;26.08;15.30;;;0.90;67.20;;;;;;7378274;19;20144;-43
2022/03/03 04:20:42;;;;;;;20.73;14.05;;;0.90;67.20;;;;;;7379201;19;20147;-44
2022/03/03 04:23:16;;;;;;;24.40;14.27;;;0.90;66.80;;;;;;7382133;19;20261;-44
2022/03/03 04:25:46;;;;;;;24.20;14.50;;;1.10;66.40;;;;;;7381807;19;20456;-44
2022/03/03 04:28:18;;;;;;;23.27;14.45;;;1.10;66.00;;;;;;7382389;19;20594;-43
2022/03/03 04:30:48;;;;;;;22.48;14.57;;;1.00;65.90;;;;;;7375138;19;20127;-44
2022/03/03 04:33:20;;;;;;;24.60;14.07;;;1.00;66.30;;;;;;7378290;19;20811;-41
2022/03/03 04:35:54;;;;;;;20.55;13.50;;;1.00;66.50;;;;;;7370085;19;20507;-43
2022/03/03 04:38:27;;;;;;;19.80;14.07;;;1.00;66.70;;;;;;7372841;19;20132;-43
2022/03/03 04:40:56;;;;;;;25.58;15.23;;;1.00;66.80;;;;;;7376001;19;20636;-43
2022/03/03 04:43:30;;;;;;;28.77;14.68;;;0.90;66.90;;;;;;7381638;19;20481;-44
2022/03/03 04:46:00;;;;;;;27.48;15.20;;;0.90;67.10;;;;;;7378592;19;20131;-43
2022/03/03 04:48:29;;;;;;;23.77;15.00;;;0.90;67.10;;;;;;7380533;19;20625;-43
2022/03/03 04:51:00;;;;;;;28.55;15.25;;;0.90;67.20;;;;;;7378575;19;20151;-43
2022/03/03 04:53:34;;;;;;;23.08;14.57;;;0.80;67.40;;;;;;7374349;19;20132;-43
2022/03/03 04:56:11;;;;;;;25.63;15.30;;;0.90;67.60;;;;;;7380152;19;20408;-43
2022/03/03 04:58:41;;;;;;;21.90;13.98;;;0.80;68.00;;;;;;7379916;19;20594;-43
2022/03/03 05:01:10;;;;;;;22.98;15.02;;;0.80;67.90;;;;;;7377748;19;20195;-42
2022/03/03 05:03:40;;;;;;;23.73;13.98;;;0.80;67.90;;;;;;7380670;19;20128;-42
2022/03/03 05:06:14;;;;;;;22.50;14.65;;;0.80;67.90;;;;;;7377802;19;20147;-43
2022/03/03 05:08:47;;;;;;;22.85;14.50;;;0.90;67.90;;;;;;7376960;19;20132;-43
2022/03/03 05:11:21;;;;;;;24.52;14.40;;;0.80;68.00;;;;;;7381213;19;20130;-42
2022/03/03 05:13:56;;;;;;;23.80;14.00;;;0.80;68.20;;;;;;7377745;19;20139;-43
2022/03/03 05:16:25;;;;;;;24.00;15.32;;;0.60;68.70;;;;;;7377269;19;20148;-43
2022/03/03 05:18:57;;;;;;;23.60;15.68;;;0.70;68.80;;;;;;7376017;19;20407;-44
2022/03/03 05:21:30;;;;;;;23.20;13.65;;;0.70;68.60;;;;;;7379525;19;20127;-42
2022/03/03 05:24:05;;;;;;;25.35;14.65;;;0.80;68.50;;;;;;7373798;19;20132;-42
2022/03/03 05:26:37;;;;;;;26.65;15.07;;;0.80;68.40;;;;;;7375890;19;20139;-43
2022/03/03 05:29:07;;;;;;;22.60;15.43;;;0.80;68.40;;;;;;7378535;19;20144;-42
2022/03/03 05:31:37;;;;;;;25.40;15.52;;;0.80;68.40;;;;;;7377441;19;20138;-41
2022/03/03 05:34:06;;;;;;;29.55;15.95;;;0.70;68.30;;;;;;7373385;19;20151;-42
2022/03/03 05:36:39;;;;;;;32.95;16.45;;;0.70;68.50;;;;;;7371524;19;20131;-42
2022/03/03 05:39:13;;;;;;;25.25;15.60;;;0.60;68.50;;;;;;7372446;19;20127;-42
2022/03/03 05:41:43;;;;;;;25.52;15.77;;;0.70;68.60;;;;;;7375033;19;20173;-41
2022/03/03 05:44:14;;;;;;;28.40;17.15;;;0.70;68.60;;;;;;7377578;19;20142;-41
2022/03/03 05:46:49;;;;;;;26.85;15.32;;;0.70;68.40;;;;;;7372472;19;20127;-41
2022/03/03 05:49:22;;;;;;;28.05;16.77;;;0.70;68.30;;;;;;7381399;19;20243;-41
2022/03/03 05:51:51;;;;;;;22.85;13.70;;;0.70;68.40;;;;;;7370212;19;20139;-41
2022/03/03 05:54:24;;;;;;;25.52;15.60;;;0.70;68.30;;;;;;7378035;19;20684;-41
2022/03/03 05:56:56;;;;;;;21.48;13.85;;;0.70;68.30;;;;;;7373829;19;20198;-41
2022/03/03 05:59:27;;;;;;;27.08;15.20;;;0.70;68.20;;;;;;7374041;19;20186;-41
2022/03/03 06:01:57;;;;;;;26.85;15.07;;;0.70;68.40;;;;;;7371150;19;20132;-41
2022/03/03 06:04:31;;;;;;;26.48;15.98;;;0.50;68.80;;;;;;7379516;19;20128;-41
2022/03/03 06:07:06;;;;;;;26.52;15.23;;;0.50;69.10;;;;;;7377827;19;20588;-41
2022/03/03 06:09:39;;;;;;;23.60;15.60;;;0.60;68.70;;;;;;7365944;19;20139;-42
2022/03/03 06:12:20;;;;;;;26.70;16.67;;;0.60;68.20;;;;;;7379757;19;20151;-42
2022/03/03 06:14:55;;;;;;;28.63;15.40;;;0.70;68.10;;;;;;7374216;19;20840;-42
2022/03/03 06:17:27;;;;;;;22.52;15.82;;;0.60;68.30;;;;;;7368008;19;20156;-42
2022/03/03 06:19:56;;;;;;;25.02;15.23;;;0.60;68.60;;;;;;7366313;19;20146;-41
2022/03/03 06:22:26;;;;;;;27.83;16.65;;;0.70;68.60;;;;;;7375026;19;20715;-42
2022/03/03 06:25:00;;;;;;;28.10;16.15;;;0.70;68.40;;;;;;7374244;19;20142;-43
2022/03/03 06:27:32;;;;;;;28.38;16.73;;;0.80;68.20;;;;;;7375981;19;20139;-44
2022/03/03 06:30:04;;;;;;;23.80;16.17;;;0.70;68.20;;;;;;7372923;19;20139;-43
2022/03/03 06:32:34;;;;;;;23.05;14.50;;;0.80;68.20;;;;;;7372609;19;20193;-43
2022/03/03 06:35:04;;;;;;;26.88;15.90;;;0.90;68.10;;;;;;7372132;19;20217;-44
2022/03/03 06:37:34;;;;;;;31.05;18.27;;;0.90;67.80;;;;;;7375332;19;20169;-45
2022/03/03 06:40:07;;;;;;;30.73;19.25;;;1.00;68.60;;;;;;7371605;19;20135;-43
2022/03/03 06:42:41;;;;;;;27.08;17.85;;;0.90;67.80;;;;;;7372790;19;20134;-44
2022/03/03 06:45:13;;;;;;;30.52;16.73;;;1.00;67.90;;;;;;7373056;19;20142;-43
2022/03/03 06:47:44;;;;;;;21.73;15.80;;;0.90;68.10;;;;;;7376324;19;20127;-42
2022/03/03 06:50:14;;;;;;;25.85;15.88;;;0.90;68.40;;;;;;7374739;19;20614;-44
2022/03/03 06:52:44;;;;;;;24.83;15.88;;;0.90;69.00;;;;;;7367754;19;20176;-43
2022/03/03 06:55:21;;;;;;;24.50;14.57;;;1.00;67.70;;;;;;7368105;19;20216;-44
2022/03/03 06:57:55;;;;;;;26.73;16.17;;;1.10;67.40;;;;;;7361546;19;20142;-44
2022/03/03 07:00:27;;;;;;;27.40;16.33;;;1.10;66.90;;;;;;7373622;19;21717;-44
2022/03/03 07:02:57;;;;;;;30.27;15.45;;;1.10;66.60;;;;;;7372745;19;20142;-43
2022/03/03 07:05:28;;;;;;;24.40;14.88;;;1.20;67.00;;;;;;7376004;19;20165;-43
2022/03/03 07:07:57;;;;;;;23.95;14.93;;;1.10;67.30;;;;;;7370617;19;21530;-44
2022/03/03 07:10:32;;;;;;;26.13;15.95;;;1.20;67.40;;;;;;7369153;19;20128;-44
2022/03/03 07:13:02;;;;;;;27.58;15.63;;;1.20;67.40;;;;;;7367770;19;20131;-44
2022/03/03 07:15:31;;;;;;;27.55;15.25;;;1.20;67.20;;;;;;7374432;19;20134;-43
2022/03/03 07:18:10;;;;;;;29.02;17.00;;;1.20;66.90;;;;;;7372042;19;20139;-43
2022/03/03 07:20:47;;;;;;;24.20;14.40;;;1.30;67.00;;;;;;7370973;19;20132;-43
2022/03/03 07:23:29;;;;;;;34.17;16.50;;;1.50;66.40;;;;;;7371154;19;20155;-43
2022/03/03 07:26:04;;;;;;;25.38;14.85;;;1.60;65.90;;;;;;7370111;19;21181;-43
2022/03/03 07:28:37;;;;;;;25.58;15.80;;;1.70;65.10;;;;;;7371435;19;20131;-43
2022/03/03 07:31:08;;;;;;;29.88;16.73;;;1.80;64.60;;;;;;7371323;19;20498;-44
2022/03/03 07:33:46;;;;;;;28.48;17.92;;;2.00;64.40;;;;;;7364872;19;20635;-43
2022/03/03 07:36:20;;;;;;;32.10;16.70;;;2.10;64.20;;;;;;7370278;19;20135;-43
2022/03/03 07:38:58;;;;;;;32.97;16.65;;;2.10;63.90;;;;;;7372194;19;20143;-43
2022/03/03 07:41:31;;;;;;;28.45;17.25;;;2.20;64.00;;;;;;7369366;19;20188;-44
2022/03/03 07:44:06;;;;;;;25.60;18.27;;;2.30;63.30;;;;;;7357835;19;20135;-44
2022/03/03 07:46:40;;;;;;;26.00;16.38;;;2.60;62.80;;;;;;7365739;19;20123;-45
2022/03/03 07:49:11;;;;;;;27.90;16.88;;;2.70;61.70;;;;;;7369967;19;20131;-43
2022/03/03 07:51:42;;;;;;;28.58;16.27;;;2.80;61.20;;;;;;7371545;19;20790;-44
2022/03/03 07:54:12;;;;;;;25.98;16.80;;;2.80;61.40;;;;;;7370102;19;20139;-44
2022/03/03 07:56:53;;;;;;;26.63;18.45;;;3.00;61.60;;;;;;7364557;19;20515;-44
2022/03/03 07:59:28;;;;;;;33.20;18.48;;;3.10;61.00;;;;;;7364268;19;20124;-43
2022/03/03 08:02:02;;;;;;;25.67;16.08;;;3.30;61.50;;;;;;7364513;19;20633;-45
2022/03/03 08:04:35;;;;;;;23.58;15.32;;;3.40;60.00;;;;;;7368530;19;20163;-44
2022/03/03 08:07:11;;;;;;;27.45;17.70;;;3.50;59.70;;;;;;7380089;19;20158;-44
2022/03/03 08:09:43;;;;;;;24.83;15.63;;;3.60;58.90;;;;;;7371387;19;20124;-44
2022/03/03 08:12:17;;;;;;;24.83;16.08;;;3.70;58.80;;;;;;7379661;19;20449;-44
2022/03/03 08:14:48;;;;;;;30.45;19.55;;;3.80;58.30;;;;;;7380550;19;20123;-43
2022/03/03 08:17:19;;;;;;;29.63;17.23;;;3.90;58.50;;;;;;7376923;19;20219;-44
2022/03/03 08:19:56;;;;;;;23.13;15.73;;;4.30;59.00;;;;;;7375077;19;20143;-44
2022/03/03 08:22:29;;;;;;;26.55;17.25;;;5.00;57.30;;;;;;7374119;19;20146;-44
2022/03/03 08:25:00;;;;;;;22.15;16.15;;;5.60;56.40;;;;;;7375003;19;20148;-44
2022/03/03 08:27:32;;;;;;;28.05;17.02;;;6.10;54.80;;;;;;7373529;19;20638;-44
2022/03/03 08:30:01;;;;;;;26.42;17.45;;;6.60;53.80;;;;;;7368578;19;20595;-44
2022/03/03 08:32:41;;;;;;;27.45;16.40;;;7.30;52.80;;;;;;7367063;19;20151;-44
2022/03/03 08:35:16;;;;;;;24.03;17.13;;;7.90;49.70;;;;;;7373199;19;20163;-44
2022/03/03 08:37:53;;;;;;;31.33;18.87;;;8.10;49.40;;;;;;7375413;19;20399;-45
2022/03/03 08:40:24;;;;;;;28.80;18.33;;;8.40;48.30;;;;;;7356377;19;20380;-45
2022/03/03 08:43:05;;;;;;;24.50;17.17;;;8.70;47.30;;;;;;7366220;19;20420;-45
2022/03/03 08:45:38;;;;;;;24.43;18.13;;;9.10;46.90;;;;;;7375296;19;20432;-46
2022/03/03 08:48:11;;;;;;;23.60;18.87;;;9.40;46.10;;;;;;7378754;19;20877;-46
2022/03/03 08:50:42;;;;;;;25.30;18.30;;;9.60;44.40;;;;;;7379494;19;20379;-46
2022/03/03 08:53:13;;;;;;;22.40;17.77;;;9.60;44.20;;;;;;7375411;19;20397;-46
2022/03/03 08:55:45;;;;;;;31.53;20.00;;;10.00;43.10;;;;;;7381163;19;20391;-46
2022/03/03 08:58:22;;;;;;;25.80;18.17;;;10.00;42.80;;;;;;7378308;19;20681;-46
2022/03/03 09:00:52;;;;;;;24.00;17.90;;;10.70;42.20;;;;;;7375408;19;20419;-46
2022/03/03 09:03:22;;;;;;;27.30;19.23;;;11.50;40.40;;;;;;7374322;19;20408;-46
2022/03/03 09:05:56;;;;;;;28.87;20.07;;;12.40;39.40;;;;;;7377935;19;20420;-46
2022/03/03 09:08:28;;;;;;;29.93;19.03;;;13.30;37.40;;;;;;7377524;19;20376;-46
2022/03/03 09:10:58;;;;;;;24.70;19.87;;;13.80;35.70;;;;;;7378684;19;20397;-46
2022/03/03 09:13:30;;;;;;;23.60;18.37;;;14.50;35.10;;;;;;7378607;19;20523;-46
2022/03/03 09:15:59;;;;;;;27.90;20.97;;;15.10;33.50;;;;;;7380602;19;21073;-46
2022/03/03 09:18:31;;;;;;;21.53;18.53;;;15.30;33.00;;;;;;7378276;19;20395;-47
2022/03/03 09:21:01;;;;;;;22.80;18.83;;;16.00;31.50;;;;;;7375392;19;20387;-46
2022/03/03 09:23:33;;;;;;;20.97;18.30;;;16.70;30.20;;;;;;7377810;19;20383;-46
2022/03/03 09:26:03;;;;;;;24.63;19.40;;;17.10;29.60;;;;;;7377780;19;20360;-46
2022/03/03 09:28:35;;;;;;;21.57;19.27;;;17.50;28.90;;;;;;7375330;19;20384;-46
2022/03/03 09:31:05;;;;;;;24.23;18.83;;;18.30;28.10;;;;;;7380567;19;20473;-47
2022/03/03 09:33:37;;;;;;;23.43;19.30;;;18.50;27.20;;;;;;7378047;19;20398;-46
2022/03/03 09:36:09;;;;;;;22.33;19.40;;;19.00;26.80;;;;;;7376869;19;21372;-46
2022/03/03 09:38:38;;;;;;;25.33;20.70;;;19.50;26.70;;;;;;7372830;19;20396;-49
2022/03/03 09:41:08;;;;;;;25.53;21.03;;;20.10;25.60;;;;;;7375568;19;20384;-47
2022/03/03 09:43:42;;;;;;;22.67;20.23;;;20.20;25.40;;;;;;7375949;19;20376;-47
2022/03/03 09:46:12;;;;;;;22.47;19.97;;;20.40;25.30;;;;;;7375395;19;20420;-47
2022/03/03 09:48:44;;;;;;;24.30;20.77;;;20.80;24.70;;;;;;7374982;19;20455;-47
2022/03/03 09:51:13;;;;;;;27.83;20.93;;;21.10;24.10;;;;;;7378280;19;20412;-47
2022/03/03 09:53:43;;;;;;;24.40;20.80;;;21.60;24.10;;;;;;7377191;19;20416;-47
2022/03/03 09:56:13;;;;;;;26.43;21.90;;;21.40;23.50;;;;;;7375303;19;20438;-48
2022/03/03 09:58:45;;;;;;;23.53;20.70;;;21.50;23.40;;;;;;7375878;19;20373;-47
2022/03/03 10:01:17;;;;;;;26.27;20.17;;;22.20;23.10;;;;;;7373565;19;20752;-47
2022/03/03 10:03:47;;;;;;;25.97;21.80;;;22.50;23.00;;;;;;7378353;19;20390;-47
2022/03/03 10:06:24;;;;;;;24.57;19.87;;;22.90;22.90;;;;;;7374588;19;20391;-48
2022/03/03 10:08:53;;;;;;;24.57;21.57;;;23.60;22.00;;;;;;7378068;19;21241;-48
2022/03/03 10:11:23;;;;;;;23.13;20.50;;;24.30;21.90;;;;;;7372830;19;20376;-48
2022/03/03 10:13:57;;;;;;;23.57;20.23;;;24.80;21.00;;;;;;7376507;19;20384;-48
2022/03/03 10:16:32;;;;;;;21.63;19.30;;;25.10;20.30;;;;;;7375217;19;21206;-48
2022/03/03 10:19:04;;;;;;;22.40;19.77;;;25.40;20.50;;;;;;7378737;19;20410;-48
2022/03/03 10:21:37;;;;;;;26.00;20.87;;;25.80;20.10;;;;;;7375641;19;20380;-47
2022/03/03 10:24:19;;;;;;;23.57;21.07;;;25.50;20.00;;;;;;7374779;19;20385;-48
2022/03/03 10:26:48;;;;;;;23.80;20.50;;;25.60;19.50;;;;;;7373319;19;20421;-47
2022/03/03 10:29:24;;;;;;;22.50;18.97;;;26.40;19.30;;;;;;7373162;19;20520;-47
2022/03/03 10:31:59;;;;;;;20.97;18.80;;;26.50;19.00;;;;;;7376799;19;20998;-47
2022/03/03 10:34:31;;;;;;;20.20;18.10;;;26.70;18.70;;;;;;7374825;19;20432;-48
2022/03/03 10:37:04;;;;;;;21.73;19.50;;;26.50;18.60;;;;;;7378592;19;20413;-47
2022/03/03 10:39:42;;;;;;;21.13;18.63;;;26.80;18.40;;;;;;7368629;19;20380;-48
2022/03/03 10:42:16;;;;;;;24.33;18.90;;;27.30;18.40;;;;;;7375847;19;20509;-49
2022/03/03 10:44:49;;;;;;;20.60;18.47;;;28.00;17.40;;;;;;7376807;19;20459;-48
2022/03/03 10:47:22;;;;;;;18.37;16.57;;;28.10;17.20;;;;;;7375176;19;21110;-48
2022/03/03 10:49:59;;;;;;;19.90;17.90;;;27.80;17.10;;;;;;7373534;19;20380;-48
2022/03/03 10:52:31;;;;;;;19.37;17.37;;;28.00;17.00;;;;;;7375683;19;20412;-48
2022/03/03 10:55:05;;;;;;;20.83;18.60;;;28.50;16.60;;;;;;7372920;19;20902;-48
2022/03/03 10:57:38;;;;;;;20.13;18.20;;;28.80;16.30;;;;;;7374564;19;20404;-48
2022/03/03 11:00:13;;;;;;;21.67;19.13;;;29.10;16.40;;;;;;7373449;19;20443;-48
2022/03/03 11:02:46;;;;;;;19.30;17.30;;;29.70;16.10;;;;;;7371563;19;20368;-48
2022/03/03 11:05:17;;;;;;;20.07;17.90;;;30.00;15.60;;;;;;7376684;19;20380;-49
2022/03/03 11:07:50;;;;;;;20.97;18.60;;;30.00;15.50;;;;;;7368333;19;20427;-48
2022/03/03 11:10:21;;;;;;;20.83;18.70;;;29.80;15.20;;;;;;7374659;19;20384;-48
2022/03/03 11:12:51;;;;;;;21.50;17.83;;;29.10;15.90;;;;;;7372549;19;20941;-48
2022/03/03 11:15:25;;;;;;;24.53;21.93;;;28.60;15.90;;;;;;7374857;19;20401;-48
2022/03/03 11:17:55;;;;;;;19.50;17.50;;;29.50;16.00;;;;;;7371733;19;20441;-50
2022/03/03 11:20:29;;;;;;;20.10;18.20;;;30.20;15.50;;;;;;7368451;19;20388;-48
2022/03/03 11:23:02;;;;;;;21.53;18.17;;;31.00;14.70;;;;;;7375762;19;20392;-48
2022/03/03 11:25:33;;;;;;;21.13;18.97;;;30.30;15.20;;;;;;7371820;19;20975;-47
2022/03/03 11:28:08;;;;;;;21.27;19.07;;;30.70;15.30;;;;;;7376701;19;20916;-48
2022/03/03 11:30:43;;;;;;;21.10;18.47;;;31.70;14.90;;;;;;7373706;19;21126;-49
2022/03/03 11:33:25;;;;;;;21.90;19.50;;;31.70;14.80;;;;;;7369808;19;20475;-49
2022/03/03 11:35:56;;;;;;;19.40;17.33;;;31.60;14.80;;;;;;7371384;19;20713;-49
2022/03/03 11:38:30;;;;;;;21.43;19.03;;;32.10;14.40;;;;;;7373114;19;20414;-49
2022/03/03 11:41:05;;;;;;;20.27;18.27;;;32.10;14.10;;;;;;7376459;19;20412;-47
2022/03/03 11:43:49;;;;;;;20.50;18.47;;;32.10;14.20;;;;;;7381830;19;20367;-48
2022/03/03 11:46:49;;;;;;;22.80;19.30;;;32.80;13.90;;;;;;7378539;19;20411;-48
2022/03/03 11:49:21;;;;;;;21.13;18.67;;;33.10;13.80;;;;;;7380088;19;20378;-48
2022/03/03 11:51:51;;;;;;;18.73;16.90;;;33.30;13.40;;;;;;7380436;19;20408;-48
2022/03/03 11:54:28;;;;;;;21.60;19.00;;;33.40;13.00;;;;;;7384053;19;20416;-48
2022/03/03 11:57:27;;;;;;;22.10;18.23;;;33.30;13.00;;;;;;7374909;19;20424;-48
2022/03/03 12:00:03;;;;;;;21.53;19.30;;;33.00;13.20;;;;;;7379833;19;20447;-48
2022/03/03 12:02:57;;;;;;;20.40;18.30;;;33.00;13.80;;;;;;7383320;19;20371;-50
2022/03/03 12:05:40;;;;;;;277.27;41.83;;;32.70;13.50;;;;;;7380867;19;20408;-48
2022/03/03 12:08:36;;;;;;;170.30;37.43;;;33.30;13.60;;;;;;7380510;19;20387;-48
2022/03/03 12:11:14;;;;;;;44.13;25.60;;;33.40;13.20;;;;;;7379865;19;20746;-48
2022/03/03 12:13:49;;;;;;;19.80;17.80;;;33.80;13.70;;;;;;7382596;19;20395;-48
2022/03/03 12:16:28;;;;;;;21.43;18.10;;;33.30;13.00;;;;;;7379749;19;20376;-49
2022/03/03 12:19:13;;;;;;;19.80;17.53;;;32.90;13.80;;;;;;7380116;19;20363;-48
2022/03/03 12:21:48;;;;;;;20.37;18.17;;;33.30;13.30;;;;;;7378354;19;20721;-48
2022/03/03 12:24:32;;;;;;;21.50;19.30;;;33.80;13.40;;;;;;7378116;19;20787;-49
2022/03/03 12:27:15;;;;;;;20.53;18.40;;;34.00;13.10;;;;;;7378570;19;20380;-48
2022/03/03 12:29:52;;;;;;;19.57;17.67;;;32.60;13.90;;;;;;7341497;19;20403;-49
2022/03/03 12:32:40;;;;;;;20.20;18.10;;;31.30;14.50;;;;;;7366512;19;20376;-49
2022/03/03 12:35:26;;;;;;;20.70;18.60;;;32.10;14.30;;;;;;7370451;19;20444;-49
2022/03/03 12:37:59;;;;;;;22.47;18.10;;;33.20;13.60;;;;;;7366383;19;20368;-49
2022/03/03 12:40:30;;;;;;;21.20;19.10;;;32.90;13.70;;;;;;7366117;19;20384;-49
2022/03/03 12:43:00;;;;;;;22.90;17.90;;;33.70;13.70;;;;;;7362741;19;20408;-49
2022/03/03 12:45:34;;;;;;;19.73;17.57;;;33.20;13.90;;;;;;7372329;19;20388;-49
2022/03/03 12:48:07;;;;;;;20.90;18.70;;;32.80;13.90;;;;;;7370164;19;20379;-49
2022/03/03 12:50:43;;;;;;;20.90;18.17;;;32.80;14.10;;;;;;7360288;19;20380;-49
2022/03/03 12:53:17;;;;;;;20.53;18.20;;;32.00;14.80;;;;;;7376919;19;20388;-46
2022/03/03 12:55:50;;;;;;;26.60;19.80;;;31.90;14.90;;;;;;7378846;19;20372;-48
2022/03/03 12:58:22;;;;;;;22.73;19.27;;;31.30;15.00;;;;;;7374592;19;20372;-47
2022/03/03 13:00:54;;;;;;;22.83;18.83;;;31.00;15.50;;;;;;7364642;19;20410;-48
2022/03/03 13:03:26;;;;;;;22.23;19.90;;;32.00;14.90;;;;;;7363581;19;20365;-48